Time;durP1;ratioP1;P1;durP2;ratioP2;P2;SDS_P1;SDS_P2;PMS_P1;PMS_P2;Temp;Humidity;BMP_temperature;BMP_pressure;BME280_temperature;BME280_humidity;BME280_pressure;Samples;Min_cycle;Max_cycle;Signal;HPM_P1;HPM_P2
2024/04/09 00:00:39;;;;;;;4.80;2.10;;;;;;;;;;5363003;26;20902;-80
2024/04/09 00:03:05;;;;;;;5.82;3.10;;;;;;;;;;5364437;26;19992;-80
2024/04/09 00:05:33;;;;;;;11.68;2.47;;;;;;;;;;5361796;26;20444;-80
2024/04/09 00:07:59;;;;;;;16.50;2.72;;;;;;;;;;5358967;26;20483;-80
2024/04/09 00:10:25;;;;;;;13.77;2.58;;;;;;;;;;5365872;26;20004;-79
2024/04/09 00:12:52;;;;;;;11.10;2.47;;;;;;;;;;5328965;26;20019;-79
2024/04/09 00:15:18;;;;;;;10.98;2.80;;;;;;;;;;5343153;26;20012;-80
2024/04/09 00:17:54;;;;;;;12.30;3.00;;;;;;;;;;5366408;26;20004;-79
2024/04/09 00:20:27;;;;;;;12.63;2.55;;;;;;;;;;5354601;26;20004;-78
2024/04/09 00:22:54;;;;;;;12.38;2.35;;;;;;;;;;5353937;26;20142;-79
2024/04/09 00:25:23;;;;;;;10.10;2.53;;;;;;;;;;5358204;26;20408;-78
2024/04/09 00:27:55;;;;;;;10.95;2.88;;;;;;;;;;5317487;26;20029;-78
2024/04/09 00:30:21;;;;;;;17.83;3.75;;;;;;;;;;5323224;26;20483;-78
2024/04/09 00:32:51;;;;;;;13.10;2.45;;;;;;;;;;5365606;26;19996;-79
2024/04/09 00:35:21;;;;;;;10.98;2.80;;;;;;;;;;5363195;26;20000;-79
2024/04/09 00:37:51;;;;;;;16.40;3.13;;;;;;;;;;5356577;26;20072;-79
2024/04/09 00:40:18;;;;;;;17.95;3.85;;;;;;;;;;5324914;26;20230;-79
2024/04/09 00:42:43;;;;;;;25.90;2.90;;;;;;;;;;5328911;26;20015;-79
2024/04/09 00:45:09;;;;;;;12.85;4.18;;;;;;;;;;5330865;26;19996;-78
2024/04/09 00:47:34;;;;;;;9.95;2.45;;;;;;;;;;5373756;26;19996;-78
2024/04/09 00:50:11;;;;;;;9.70;2.75;;;;;;;;;;5359182;26;20014;-78
2024/04/09 00:52:37;;;;;;;13.93;2.72;;;;;;;;;;5359716;26;20085;-78
2024/04/09 00:55:04;;;;;;;15.13;2.53;;;;;;;;;;5365368;26;20083;-78
2024/04/09 00:57:30;;;;;;;16.13;2.58;;;;;;;;;;5345859;26;20006;-78
2024/04/09 00:59:56;;;;;;;10.85;2.70;;;;;;;;;;5367723;26;20011;-78
2024/04/09 01:02:23;;;;;;;11.95;2.55;;;;;;;;;;5360278;26;20014;-79
2024/04/09 01:04:49;;;;;;;15.25;3.13;;;;;;;;;;5337029;26;20004;-79
2024/04/09 01:07:15;;;;;;;14.35;3.25;;;;;;;;;;5327612;26;20004;-78
2024/04/09 01:09:41;;;;;;;12.57;2.97;;;;;;;;;;5336822;26;20003;-79
2024/04/09 01:12:06;;;;;;;11.43;2.83;;;;;;;;;;5368160;26;20052;-77
2024/04/09 01:14:32;;;;;;;11.15;2.47;;;;;;;;;;5319814;26;20337;-77
2024/04/09 01:16:57;;;;;;;11.55;2.83;;;;;;;;;;5366530;26;19996;-78
2024/04/09 01:19:23;;;;;;;11.02;2.65;;;;;;;;;;5364810;26;19996;-79
2024/04/09 01:21:50;;;;;;;5.78;2.55;;;;;;;;;;5363055;26;19996;-79
2024/04/09 01:24:16;;;;;;;10.68;2.33;;;;;;;;;;5364945;26;20570;-79
2024/04/09 01:26:41;;;;;;;10.48;3.03;;;;;;;;;;5339161;26;20050;-78
2024/04/09 01:29:06;;;;;;;19.38;3.05;;;;;;;;;;5362045;26;20012;-78
2024/04/09 01:31:33;;;;;;;10.05;3.55;;;;;;;;;;5367136;26;20009;-78
2024/04/09 01:33:59;;;;;;;13.27;2.63;;;;;;;;;;5364020;26;20008;-79
2024/04/09 01:36:27;;;;;;;9.50;2.38;;;;;;;;;;5370700;26;20015;-79
2024/04/09 01:38:52;;;;;;;15.90;3.15;;;;;;;;;;5369343;26;20012;-78
2024/04/09 01:41:18;;;;;;;17.13;2.80;;;;;;;;;;5361630;26;20000;-78
2024/04/09 01:43:43;;;;;;;4.82;1.50;;;;;;;;;;5360874;26;19996;-77
2024/04/09 01:46:09;;;;;;;5.53;1.67;;;;;;;;;;5351239;26;19996;-78
2024/04/09 01:48:34;;;;;;;7.20;1.80;;;;;;;;;;5368060;26;20032;-79
2024/04/09 01:50:59;;;;;;;5.25;2.10;;;;;;;;;;5366947;26;19996;-78
2024/04/09 01:53:25;;;;;;;4.25;1.40;;;;;;;;;;5357050;26;20008;-79
2024/04/09 01:56:03;;;;;;;11.68;3.85;;;;;;;;;;5354786;26;19996;-78
2024/04/09 01:58:28;;;;;;;19.90;3.15;;;;;;;;;;5362440;26;20011;-78
2024/04/09 02:00:54;;;;;;;7.05;1.42;;;;;;;;;;5353261;26;20000;-78
2024/04/09 02:03:20;;;;;;;3.78;1.38;;;;;;;;;;5348733;26;20000;-79
2024/04/09 02:05:46;;;;;;;9.98;2.08;;;;;;;;;;5355997;26;20010;-79
2024/04/09 02:08:11;;;;;;;4.50;1.10;;;;;;;;;;5361447;26;20016;-79
2024/04/09 02:10:37;;;;;;;13.13;2.67;;;;;;;;;;5362831;26;20061;-78
2024/04/09 02:13:03;;;;;;;10.48;2.47;;;;;;;;;;5355330;26;20435;-79
2024/04/09 02:15:29;;;;;;;8.77;1.67;;;;;;;;;;5361623;26;20014;-79
2024/04/09 02:17:55;;;;;;;8.50;3.42;;;;;;;;;;5349881;26;20015;-78
2024/04/09 02:20:20;;;;;;;4.05;1.50;;;;;;;;;;5359050;26;20001;-77
2024/04/09 02:22:46;;;;;;;16.08;2.60;;;;;;;;;;5357149;26;20007;-79
2024/04/09 02:25:11;;;;;;;18.42;2.53;;;;;;;;;;5355639;26;20014;-78
2024/04/09 02:27:36;;;;;;;3.88;1.83;;;;;;;;;;5363946;26;19992;-78
2024/04/09 02:30:03;;;;;;;3.20;1.33;;;;;;;;;;5358376;26;19995;-79
2024/04/09 02:32:29;;;;;;;12.20;2.78;;;;;;;;;;5365726;26;20008;-78
2024/04/09 02:34:55;;;;;;;14.07;2.65;;;;;;;;;;5344568;26;20035;-79
2024/04/09 02:37:21;;;;;;;3.45;1.40;;;;;;;;;;5360761;26;20141;-78
2024/04/09 02:39:46;;;;;;;20.08;2.95;;;;;;;;;;5366681;26;20004;-79
2024/04/09 02:42:13;;;;;;;9.98;2.42;;;;;;;;;;5370022;26;20007;-79
2024/04/09 02:44:39;;;;;;;13.65;2.72;;;;;;;;;;5356062;26;20004;-79
2024/04/09 02:47:06;;;;;;;17.95;2.75;;;;;;;;;;5328825;26;20066;-78
2024/04/09 02:49:31;;;;;;;11.82;2.55;;;;;;;;;;5364953;26;20554;-80
2024/04/09 02:51:56;;;;;;;9.55;2.28;;;;;;;;;;5316044;26;20028;-78
2024/04/09 02:54:22;;;;;;;12.57;2.80;;;;;;;;;;5360787;26;20470;-79
2024/04/09 02:56:47;;;;;;;14.95;2.53;;;;;;;;;;5363334;26;19993;-78
2024/04/09 02:59:14;;;;;;;7.07;2.33;;;;;;;;;;5360547;26;20082;-78
2024/04/09 03:01:39;;;;;;;13.00;2.65;;;;;;;;;;5355311;26;20007;-79
2024/04/09 03:04:04;;;;;;;14.43;3.03;;;;;;;;;;5358457;26;20000;-78
2024/04/09 03:06:30;;;;;;;16.75;3.55;;;;;;;;;;5366163;26;19996;-78
2024/04/09 03:08:55;;;;;;;9.10;2.72;;;;;;;;;;5357553;26;20000;-79
2024/04/09 03:11:21;;;;;;;11.07;2.47;;;;;;;;;;5329707;26;20085;-79
2024/04/09 03:13:49;;;;;;;10.50;2.50;;;;;;;;;;5355301;26;20748;-77
2024/04/09 03:16:20;;;;;;;4.72;1.70;;;;;;;;;;5357798;26;20004;-78
2024/04/09 03:18:46;;;;;;;;;;;;;;;;;;5370743;26;20026;-78
2024/04/09 03:21:11;;;;;;;17.95;3.13;;;;;;;;;;5353584;26;20657;-79
2024/04/09 03:23:38;;;;;;;16.52;2.90;;;;;;;;;;5354744;26;20008;-80
2024/04/09 03:26:06;;;;;;;11.63;3.50;;;;;;;;;;5327962;26;20012;-79
2024/04/09 03:28:31;;;;;;;14.48;2.45;;;;;;;;;;5357767;26;19997;-78
2024/04/09 03:31:02;;;;;;;12.82;2.78;;;;;;;;;;5362059;26;19991;-78
2024/04/09 03:33:27;;;;;;;19.98;3.20;;;;;;;;;;5354707;26;20032;-78
2024/04/09 03:35:54;;;;;;;12.30;3.63;;;;;;;;;;5355258;26;20019;-79
2024/04/09 03:38:20;;;;;;;14.50;2.80;;;;;;;;;;5363939;26;20076;-78
2024/04/09 03:41:00;;;;;;;8.63;2.03;;;;;;;;;;5348469;26;19996;-79
2024/04/09 03:43:26;;;;;;;9.13;2.00;;;;;;;;;;5345271;26;20012;-79
2024/04/09 03:46:08;;;;;;;3.58;1.45;;;;;;;;;;5366781;26;20019;-78
2024/04/09 03:48:38;;;;;;;17.88;3.50;;;;;;;;;;5350682;26;20011;-78
2024/04/09 03:51:03;;;;;;;11.55;2.70;;;;;;;;;;5358427;26;20077;-78
2024/04/09 03:53:29;;;;;;;4.78;1.25;;;;;;;;;;5345417;26;20000;-79
2024/04/09 03:56:02;;;;;;;14.15;2.80;;;;;;;;;;5355788;26;20117;-78
2024/04/09 03:58:37;;;;;;;11.73;2.83;;;;;;;;;;5365339;26;20007;-79
2024/04/09 04:01:03;;;;;;;13.32;3.30;;;;;;;;;;5366916;26;19999;-79
2024/04/09 04:03:34;;;;;;;5.53;1.85;;;;;;;;;;5335919;26;20004;-78
2024/04/09 04:06:00;;;;;;;13.27;3.30;;;;;;;;;;5352986;26;20189;-79
2024/04/09 04:08:33;;;;;;;12.80;2.67;;;;;;;;;;5350050;26;19997;-78
2024/04/09 04:11:03;;;;;;;10.48;2.90;;;;;;;;;;5357922;26;20004;-78
2024/04/09 04:13:30;;;;;;;3.83;1.10;;;;;;;;;;5326927;26;20007;-78
2024/04/09 04:16:05;;;;;;;17.85;3.15;;;;;;;;;;5354756;26;20004;-78
2024/04/09 04:18:37;;;;;;;10.45;3.10;;;;;;;;;;5359417;26;20418;-79
2024/04/09 04:21:04;;;;;;;11.80;2.60;;;;;;;;;;5343110;26;20441;-79
2024/04/09 04:23:30;;;;;;;13.88;3.00;;;;;;;;;;5355295;26;20018;-79
2024/04/09 04:25:58;;;;;;;17.15;3.13;;;;;;;;;;5364329;26;20436;-79
2024/04/09 04:28:24;;;;;;;12.43;3.15;;;;;;;;;;5364885;26;19999;-79
2024/04/09 04:30:49;;;;;;;12.02;2.95;;;;;;;;;;5365247;26;20410;-78
2024/04/09 04:33:15;;;;;;;13.25;3.92;;;;;;;;;;5354996;26;20015;-78
2024/04/09 04:35:40;;;;;;;22.40;4.22;;;;;;;;;;5369613;26;20042;-78
2024/04/09 04:38:05;;;;;;;14.43;3.65;;;;;;;;;;5346026;26;20815;-78
2024/04/09 04:40:31;;;;;;;6.07;2.00;;;;;;;;;;5365606;26;20001;-78
2024/04/09 04:42:56;;;;;;;14.40;2.25;;;;;;;;;;5354181;26;20071;-78
2024/04/09 04:45:21;;;;;;;14.13;2.70;;;;;;;;;;5354048;26;20000;-78
2024/04/09 04:47:47;;;;;;;6.15;2.75;;;;;;;;;;5361702;26;20015;-79
2024/04/09 04:50:12;;;;;;;6.05;2.30;;;;;;;;;;5358566;26;19996;-78
2024/04/09 04:52:38;;;;;;;16.77;3.53;;;;;;;;;;5363610;26;20020;-78
2024/04/09 04:55:03;;;;;;;10.65;2.70;;;;;;;;;;5341109;26;20412;-78
2024/04/09 04:57:29;;;;;;;5.32;2.45;;;;;;;;;;5359069;26;20004;-78
2024/04/09 04:59:55;;;;;;;10.68;2.13;;;;;;;;;;5354317;26;19997;-78
2024/04/09 05:02:20;;;;;;;9.88;3.47;;;;;;;;;;5379936;26;20015;-81
2024/04/09 05:04:53;;;;;;;10.27;2.92;;;;;;;;;;5342564;26;20000;-79
2024/04/09 05:07:18;;;;;;;9.32;2.05;;;;;;;;;;5360953;26;19996;-79
2024/04/09 05:09:44;;;;;;;7.60;2.03;;;;;;;;;;5372403;26;20071;-79
2024/04/09 05:12:09;;;;;;;15.25;2.30;;;;;;;;;;5361349;26;20004;-79
2024/04/09 05:14:35;;;;;;;7.68;2.40;;;;;;;;;;5360892;26;19996;-79
2024/04/09 05:17:01;;;;;;;8.88;2.00;;;;;;;;;;5362758;26;20037;-79
2024/04/09 05:19:26;;;;;;;6.88;2.10;;;;;;;;;;5362873;26;20027;-81
2024/04/09 05:21:52;;;;;;;6.80;1.92;;;;;;;;;;5331980;26;20071;-82
2024/04/09 05:24:17;;;;;;;11.68;2.38;;;;;;;;;;5320247;26;20019;-83
2024/04/09 05:26:43;;;;;;;11.30;2.05;;;;;;;;;;5342997;26;20008;-82
2024/04/09 05:29:08;;;;;;;7.20;2.25;;;;;;;;;;5350168;26;20532;-80
2024/04/09 05:31:33;;;;;;;12.63;2.83;;;;;;;;;;5362627;26;20008;-80
2024/04/09 05:33:59;;;;;;;14.35;3.33;;;;;;;;;;5340932;26;20025;-78
2024/04/09 05:36:26;;;;;;;24.17;3.60;;;;;;;;;;5334173;26;20121;-78
2024/04/09 05:38:52;;;;;;;13.52;3.35;;;;;;;;;;5357435;26;20011;-78
2024/04/09 05:41:17;;;;;;;14.45;2.67;;;;;;;;;;5363191;26;20000;-78
2024/04/09 05:43:42;;;;;;;16.08;2.92;;;;;;;;;;5345224;26;20007;-78
2024/04/09 05:46:08;;;;;;;11.40;2.88;;;;;;;;;;5336562;26;19998;-79
2024/04/09 05:48:33;;;;;;;11.32;2.58;;;;;;;;;;5366155;26;20011;-78
2024/04/09 05:50:59;;;;;;;16.50;2.75;;;;;;;;;;5357299;26;20501;-78
2024/04/09 05:53:24;;;;;;;7.03;2.35;;;;;;;;;;5353194;26;20102;-78
2024/04/09 05:55:56;;;;;;;10.90;2.30;;;;;;;;;;5359473;26;20378;-78
2024/04/09 05:58:21;;;;;;;11.98;2.25;;;;;;;;;;5345483;26;20008;-78
2024/04/09 06:00:47;;;;;;;10.65;2.83;;;;;;;;;;5351784;26;20014;-78
2024/04/09 06:03:16;;;;;;;9.98;2.33;;;;;;;;;;5349716;26;23456;-78
2024/04/09 06:05:41;;;;;;;13.88;3.15;;;;;;;;;;5355419;26;20032;-78
2024/04/09 06:08:06;;;;;;;8.43;2.35;;;;;;;;;;5356892;26;20011;-78
2024/04/09 06:10:32;;;;;;;10.93;2.60;;;;;;;;;;5337353;26;20010;-78
2024/04/09 06:12:57;;;;;;;15.98;2.85;;;;;;;;;;5349987;26;20016;-79
2024/04/09 06:15:23;;;;;;;9.35;2.92;;;;;;;;;;5357658;26;20040;-78
2024/04/09 06:17:48;;;;;;;18.02;4.47;;;;;;;;;;5345747;26;19997;-78
2024/04/09 06:20:14;;;;;;;12.32;3.28;;;;;;;;;;5368075;26;20476;-79
2024/04/09 06:22:40;;;;;;;14.50;2.78;;;;;;;;;;5355415;26;20001;-78
2024/04/09 06:25:06;;;;;;;14.27;3.00;;;;;;;;;;5360337;26;20352;-78
2024/04/09 06:27:32;;;;;;;14.93;3.85;;;;;;;;;;5356707;26;20004;-78
2024/04/09 06:29:57;;;;;;;8.93;2.78;;;;;;;;;;5357133;26;20010;-78
2024/04/09 06:32:23;;;;;;;12.77;4.03;;;;;;;;;;5367840;26;20049;-78
2024/04/09 06:34:49;;;;;;;15.35;4.43;;;;;;;;;;5344425;26;20004;-78
2024/04/09 06:37:14;;;;;;;18.25;3.45;;;;;;;;;;5358866;26;20000;-78
2024/04/09 06:39:39;;;;;;;9.80;3.55;;;;;;;;;;5358613;26;20103;-78
2024/04/09 06:42:05;;;;;;;9.13;2.92;;;;;;;;;;5346159;26;20000;-79
2024/04/09 06:44:31;;;;;;;11.27;2.63;;;;;;;;;;5349535;26;20515;-78
2024/04/09 06:46:56;;;;;;;15.75;3.15;;;;;;;;;;5358262;26;19996;-78
2024/04/09 06:49:22;;;;;;;9.65;3.53;;;;;;;;;;5361722;26;20037;-78
2024/04/09 06:51:47;;;;;;;13.27;4.03;;;;;;;;;;5348374;26;20003;-79
2024/04/09 06:54:12;;;;;;;23.55;3.75;;;;;;;;;;5350410;26;20012;-78
2024/04/09 06:56:38;;;;;;;13.95;3.40;;;;;;;;;;5357249;26;20476;-78
2024/04/09 06:59:03;;;;;;;18.08;4.38;;;;;;;;;;5363137;26;19999;-78
2024/04/09 07:01:29;;;;;;;14.00;3.70;;;;;;;;;;5354854;26;20113;-78
2024/04/09 07:03:56;;;;;;;8.80;3.30;;;;;;;;;;5353528;26;20372;-79
2024/04/09 07:06:21;;;;;;;13.10;3.33;;;;;;;;;;5360016;26;20039;-78
2024/04/09 07:08:47;;;;;;;14.55;4.40;;;;;;;;;;5344709;26;20348;-78
2024/04/09 07:11:12;;;;;;;12.82;4.22;;;;;;;;;;5357096;26;19996;-78
2024/04/09 07:13:37;;;;;;;10.95;3.35;;;;;;;;;;5357542;26;20589;-78
2024/04/09 07:16:03;;;;;;;5.57;2.08;;;;;;;;;;5351700;26;20078;-79
2024/04/09 07:18:28;;;;;;;7.88;2.20;;;;;;;;;;5362049;26;19999;-78
2024/04/09 07:20:54;;;;;;;4.30;1.30;;;;;;;;;;5323454;26;20000;-79
2024/04/09 07:23:19;;;;;;;4.30;1.10;;;;;;;;;;5354511;26;20717;-79
2024/04/09 07:25:44;;;;;;;7.38;2.05;;;;;;;;;;5345544;26;20000;-78
2024/04/09 07:28:10;;;;;;;7.82;2.75;;;;;;;;;;5356575;26;20000;-79
2024/04/09 07:30:36;;;;;;;6.32;2.28;;;;;;;;;;5353981;26;20008;-79
2024/04/09 07:33:02;;;;;;;5.32;1.60;;;;;;;;;;5351199;26;20016;-78
2024/04/09 07:35:28;;;;;;;5.75;1.90;;;;;;;;;;5357553;26;20019;-79
2024/04/09 07:37:54;;;;;;;9.88;2.00;;;;;;;;;;5353385;26;20520;-80
2024/04/09 07:40:20;;;;;;;4.88;1.73;;;;;;;;;;5366835;26;20082;-78
2024/04/09 07:42:45;;;;;;;6.95;1.95;;;;;;;;;;5342255;26;20602;-79
2024/04/09 07:45:11;;;;;;;14.95;3.30;;;;;;;;;;5353518;26;20015;-78
2024/04/09 07:47:36;;;;;;;4.72;1.50;;;;;;;;;;5354402;26;20000;-78
2024/04/09 07:50:09;;;;;;;10.05;2.20;;;;;;;;;;5358991;26;19996;-78
2024/04/09 07:52:38;;;;;;;13.65;2.83;;;;;;;;;;5348624;26;20007;-79
2024/04/09 07:55:08;;;;;;;11.60;2.58;;;;;;;;;;5347645;26;19997;-79
2024/04/09 07:57:36;;;;;;;11.57;2.17;;;;;;;;;;5338069;26;20014;-79
2024/04/09 08:00:03;;;;;;;9.50;2.13;;;;;;;;;;5367038;26;20004;-79
2024/04/09 08:02:29;;;;;;;15.25;3.20;;;;;;;;;;5349036;26;20326;-79
2024/04/09 08:04:54;;;;;;;16.52;2.65;;;;;;;;;;5352736;26;20059;-80
2024/04/09 08:07:19;;;;;;;6.97;2.45;;;;;;;;;;5355416;26;20000;-79
2024/04/09 08:09:45;;;;;;;9.73;2.10;;;;;;;;;;5362831;26;20007;-78
2024/04/09 08:12:10;;;;;;;15.82;2.75;;;;;;;;;;5344170;26;20019;-79
2024/04/09 08:14:36;;;;;;;11.25;2.53;;;;;;;;;;5333703;26;20569;-79
2024/04/09 08:17:01;;;;;;;10.90;2.75;;;;;;;;;;5354062;26;20458;-79
2024/04/09 08:19:28;;;;;;;6.05;1.60;;;;;;;;;;5356346;26;20011;-79
2024/04/09 08:21:54;;;;;;;16.52;2.38;;;;;;;;;;5321214;26;20001;-79
2024/04/09 08:24:20;;;;;;;11.23;2.30;;;;;;;;;;5352841;26;20004;-79
2024/04/09 08:26:45;;;;;;;9.80;2.50;;;;;;;;;;5335079;26;20036;-79
2024/04/09 08:29:15;;;;;;;7.70;2.08;;;;;;;;;;5353187;26;20004;-79
2024/04/09 08:31:44;;;;;;;18.20;2.90;;;;;;;;;;5336440;26;20001;-79
2024/04/09 08:34:10;;;;;;;10.88;3.55;;;;;;;;;;5358811;26;20012;-79
2024/04/09 08:36:38;;;;;;;12.40;2.58;;;;;;;;;;5351941;26;20004;-79
2024/04/09 08:39:04;;;;;;;9.15;1.73;;;;;;;;;;5353202;26;20004;-79
2024/04/09 08:41:30;;;;;;;9.15;2.00;;;;;;;;;;5351927;26;20032;-79
2024/04/09 08:43:58;;;;;;;9.45;2.45;;;;;;;;;;5324069;26;20132;-79
2024/04/09 08:46:24;;;;;;;10.50;1.75;;;;;;;;;;5340728;26;20085;-79
2024/04/09 08:48:50;;;;;;;9.35;1.85;;;;;;;;;;5356874;26;20460;-79
2024/04/09 08:51:16;;;;;;;13.45;2.78;;;;;;;;;;5353950;26;20111;-79
2024/04/09 08:53:44;;;;;;;9.35;1.88;;;;;;;;;;5355824;26;20336;-79
2024/04/09 08:56:10;;;;;;;8.48;2.28;;;;;;;;;;5349487;26;19993;-79
2024/04/09 08:58:36;;;;;;;6.65;1.67;;;;;;;;;;5353765;26;19999;-79
2024/04/09 09:01:02;;;;;;;10.68;3.13;;;;;;;;;;5347668;26;20004;-79
2024/04/09 09:03:28;;;;;;;12.93;2.72;;;;;;;;;;5345680;26;20011;-79
2024/04/09 09:06:04;;;;;;;10.63;2.38;;;;;;;;;;5361502;26;19992;-80
2024/04/09 09:08:42;;;;;;;9.30;2.40;;;;;;;;;;5362353;26;20004;-79
2024/04/09 09:11:09;;;;;;;12.70;2.08;;;;;;;;;;5360582;26;20011;-79
2024/04/09 09:13:34;;;;;;;11.23;3.22;;;;;;;;;;5327680;26;20016;-79
2024/04/09 09:16:00;;;;;;;8.50;1.92;;;;;;;;;;5350449;26;20004;-79
2024/04/09 09:18:25;;;;;;;9.93;2.83;;;;;;;;;;5362070;26;19993;-79
2024/04/09 09:21:00;;;;;;;9.45;2.70;;;;;;;;;;5335511;26;20090;-80
2024/04/09 09:23:25;;;;;;;6.20;1.80;;;;;;;;;;5358693;26;20004;-79
2024/04/09 09:25:52;;;;;;;9.57;2.42;;;;;;;;;;5371094;26;20010;-79
2024/04/09 09:28:21;;;;;;;9.85;2.25;;;;;;;;;;5362681;26;20008;-79
2024/04/09 09:30:47;;;;;;;6.95;2.13;;;;;;;;;;5355390;26;20008;-80
2024/04/09 09:33:19;;;;;;;14.13;2.67;;;;;;;;;;5348462;26;19993;-79
2024/04/09 09:35:51;;;;;;;16.95;3.13;;;;;;;;;;5353799;26;20004;-80
2024/04/09 09:38:17;;;;;;;9.82;2.20;;;;;;;;;;5361489;26;20012;-79
2024/04/09 09:40:46;;;;;;;5.80;1.92;;;;;;;;;;5363929;26;20018;-79
2024/04/09 09:43:14;;;;;;;12.18;2.22;;;;;;;;;;5331764;26;20085;-79
2024/04/09 09:45:40;;;;;;;16.13;2.55;;;;;;;;;;5369334;26;20011;-79
2024/04/09 09:48:08;;;;;;;9.32;2.08;;;;;;;;;;5364020;26;20001;-79
2024/04/09 09:50:36;;;;;;;12.57;2.97;;;;;;;;;;5356203;26;20015;-79
2024/04/09 09:53:03;;;;;;;6.13;2.38;;;;;;;;;;5361410;26;20004;-79
2024/04/09 09:55:29;;;;;;;11.07;1.73;;;;;;;;;;5358170;26;20019;-79
2024/04/09 09:57:57;;;;;;;6.82;1.45;;;;;;;;;;5361446;26;20015;-79
2024/04/09 10:00:24;;;;;;;10.07;1.65;;;;;;;;;;5331654;26;20011;-80
2024/04/09 10:02:50;;;;;;;11.93;1.88;;;;;;;;;;5340618;26;20016;-79
2024/04/09 10:05:17;;;;;;;11.68;2.20;;;;;;;;;;5331569;26;20011;-79
2024/04/09 10:07:43;;;;;;;7.75;1.65;;;;;;;;;;5359986;26;20008;-80
2024/04/09 10:10:09;;;;;;;4.75;1.40;;;;;;;;;;5361388;26;20012;-80
2024/04/09 10:12:35;;;;;;;5.45;1.80;;;;;;;;;;5330719;26;20015;-80
2024/04/09 10:15:03;;;;;;;6.43;1.70;;;;;;;;;;5364119;26;20001;-80
2024/04/09 10:18:04;;;;;;;7.50;2.17;;;;;;;;;;5331991;26;19999;-80
2024/04/09 10:20:31;;;;;;;8.98;2.13;;;;;;;;;;5331227;26;20015;-80
2024/04/09 10:23:01;;;;;;;5.78;1.83;;;;;;;;;;5362401;26;20000;-79
2024/04/09 10:25:31;;;;;;;9.15;1.60;;;;;;;;;;5360832;26;20004;-79
2024/04/09 10:28:02;;;;;;;6.53;1.70;;;;;;;;;;5326717;26;20146;-79
2024/04/09 10:30:28;;;;;;;4.03;1.35;;;;;;;;;;5352766;26;20521;-79
2024/04/09 10:32:57;;;;;;;4.13;1.10;;;;;;;;;;5333235;26;20011;-80
2024/04/09 10:35:23;;;;;;;5.30;1.30;;;;;;;;;;5355374;26;20085;-80
2024/04/09 10:37:53;;;;;;;60.05;5.18;;;;;;;;;;5356346;26;20111;-79
2024/04/09 10:40:20;;;;;;;4.63;1.10;;;;;;;;;;5359798;26;20000;-80
2024/04/09 10:42:45;;;;;;;4.47;1.15;;;;;;;;;;5357081;26;20044;-79
2024/04/09 10:45:11;;;;;;;8.30;1.35;;;;;;;;;;5367629;26;20008;-80
2024/04/09 10:47:40;;;;;;;6.70;1.60;;;;;;;;;;5353597;26;20011;-79
2024/04/09 10:50:07;;;;;;;3.95;1.30;;;;;;;;;;5363079;26;20000;-80
2024/04/09 10:52:33;;;;;;;6.70;1.75;;;;;;;;;;5360568;26;20035;-80
2024/04/09 10:55:15;;;;;;;3.95;1.15;;;;;;;;;;5358466;26;20021;-80
2024/04/09 10:57:42;;;;;;;4.13;1.60;;;;;;;;;;5354124;26;20557;-79
2024/04/09 11:00:08;;;;;;;3.22;1.20;;;;;;;;;;5351642;26;20069;-79
2024/04/09 11:02:36;;;;;;;6.78;1.58;;;;;;;;;;5350126;26;19997;-79
2024/04/09 11:05:02;;;;;;;3.63;1.10;;;;;;;;;;5358341;26;20397;-80
2024/04/09 11:07:28;;;;;;;7.43;1.23;;;;;;;;;;5336133;26;20007;-79
2024/04/09 11:09:54;;;;;;;4.70;1.15;;;;;;;;;;5366238;26;19992;-80
2024/04/09 11:12:19;;;;;;;7.72;1.50;;;;;;;;;;5333619;26;20000;-80
2024/04/09 11:14:45;;;;;;;4.90;1.40;;;;;;;;;;5362319;26;20050;-80
2024/04/09 11:17:17;;;;;;;5.35;1.30;;;;;;;;;;5351794;26;20004;-81
2024/04/09 11:19:43;;;;;;;68.47;5.78;;;;;;;;;;5366741;26;20004;-79
2024/04/09 11:22:08;;;;;;;5.10;1.27;;;;;;;;;;5361768;26;20014;-80
2024/04/09 11:24:36;;;;;;;5.45;1.20;;;;;;;;;;5362776;26;20512;-80
2024/04/09 11:27:04;;;;;;;2.38;1.15;;;;;;;;;;5363658;26;20016;-80
2024/04/09 11:29:30;;;;;;;4.82;1.17;;;;;;;;;;5364359;26;20004;-79
2024/04/09 11:32:00;;;;;;;4.65;1.38;;;;;;;;;;5358279;26;20064;-79
2024/04/09 11:34:26;;;;;;;;;;;;;;;;;;5324761;26;20015;-81
2024/04/09 11:36:53;;;;;;;4.75;1.38;;;;;;;;;;5361853;26;19925;-81
2024/04/09 11:39:22;;;;;;;4.25;1.05;;;;;;;;;;5355900;26;20000;-80
2024/04/09 11:41:48;;;;;;;1.80;0.70;;;;;;;;;;5331816;26;20724;-80
2024/04/09 11:44:24;;;;;;;2.58;0.85;;;;;;;;;;5362517;26;20008;-80
2024/04/09 11:46:50;;;;;;;5.97;1.20;;;;;;;;;;5341032;26;20011;-80
2024/04/09 11:49:16;;;;;;;5.57;1.35;;;;;;;;;;5354730;26;20001;-80
2024/04/09 11:51:42;;;;;;;4.88;0.95;;;;;;;;;;5356847;26;20000;-79
2024/04/09 11:54:08;;;;;;;6.85;1.13;;;;;;;;;;5363328;26;20019;-80
2024/04/09 11:56:39;;;;;;;4.43;1.35;;;;;;;;;;5361447;26;20000;-80
2024/04/09 11:59:08;;;;;;;2.65;1.10;;;;;;;;;;5365917;26;20009;-79
2024/04/09 12:01:34;;;;;;;2.72;0.80;;;;;;;;;;5331728;26;20449;-81
2024/04/09 12:03:59;;;;;;;3.60;0.90;;;;;;;;;;5351249;26;20007;-80
2024/04/09 12:06:25;;;;;;;5.13;1.00;;;;;;;;;;5356870;26;20043;-79
2024/04/09 12:08:52;;;;;;;2.78;0.75;;;;;;;;;;5359817;26;20043;-80
2024/04/09 12:11:18;;;;;;;4.32;1.10;;;;;;;;;;5357602;26;20472;-79
2024/04/09 12:13:44;;;;;;;3.30;1.00;;;;;;;;;;5359124;26;20008;-80
2024/04/09 12:16:09;;;;;;;3.90;0.98;;;;;;;;;;5365653;26;20040;-80
2024/04/09 12:18:35;;;;;;;2.38;0.60;;;;;;;;;;5345556;26;20010;-80
2024/04/09 12:21:00;;;;;;;4.57;0.90;;;;;;;;;;5358476;26;20050;-79
2024/04/09 12:23:27;;;;;;;4.82;0.80;;;;;;;;;;5372009;26;20008;-80
2024/04/09 12:25:53;;;;;;;2.55;1.35;;;;;;;;;;5366300;26;20070;-80
2024/04/09 12:28:18;;;;;;;3.97;1.00;;;;;;;;;;5366875;26;20073;-79
2024/04/09 12:30:43;;;;;;;2.40;0.60;;;;;;;;;;5367657;26;20007;-80
2024/04/09 12:33:10;;;;;;;2.85;0.80;;;;;;;;;;5362782;26;20008;-80
2024/04/09 12:35:35;;;;;;;1.77;0.65;;;;;;;;;;5363388;26;19996;-79
2024/04/09 12:38:01;;;;;;;6.00;0.90;;;;;;;;;;5345620;26;20000;-80
2024/04/09 12:40:26;;;;;;;2.88;0.80;;;;;;;;;;5346425;26;19996;-80
2024/04/09 12:42:52;;;;;;;3.50;0.80;;;;;;;;;;5365893;26;19996;-80
2024/04/09 12:45:18;;;;;;;4.57;0.80;;;;;;;;;;5340990;26;19996;-79
2024/04/09 12:47:44;;;;;;;5.70;1.13;;;;;;;;;;5366666;26;20008;-79
2024/04/09 12:50:13;;;;;;;3.30;0.80;;;;;;;;;;5372050;26;20057;-80
2024/04/09 12:52:39;;;;;;;4.45;0.98;;;;;;;;;;5339948;26;20032;-80
2024/04/09 12:55:05;;;;;;;2.40;0.80;;;;;;;;;;5356283;26;20001;-79
2024/04/09 12:57:31;;;;;;;3.22;1.00;;;;;;;;;;5374483;26;20014;-80
2024/04/09 12:59:57;;;;;;;3.53;0.80;;;;;;;;;;5370672;26;20008;-80
2024/04/09 13:02:23;;;;;;;1.40;0.50;;;;;;;;;;5340451;26;20448;-79
2024/04/09 13:04:49;;;;;;;3.10;0.52;;;;;;;;;;5361922;26;20000;-79
2024/04/09 13:07:14;;;;;;;0.85;0.50;;;;;;;;;;5361216;26;20058;-79
2024/04/09 13:09:40;;;;;;;0.40;0.30;;;;;;;;;;5369033;26;20004;-79
2024/04/09 13:12:06;;;;;;;0.40;0.30;;;;;;;;;;5321654;26;20015;-79
2024/04/09 13:14:32;;;;;;;0.40;0.40;;;;;;;;;;5362318;26;20050;-79
2024/04/09 13:16:57;;;;;;;1.73;0.40;;;;;;;;;;5361433;26;20090;-79
2024/04/09 13:19:22;;;;;;;0.30;0.30;;;;;;;;;;5368045;26;19995;-79
2024/04/09 13:21:48;;;;;;;0.52;0.30;;;;;;;;;;5363629;26;19995;-79
2024/04/09 13:24:14;;;;;;;0.63;0.30;;;;;;;;;;5364392;26;20008;-80
2024/04/09 13:26:39;;;;;;;0.30;0.30;;;;;;;;;;5333592;26;20392;-79
2024/04/09 13:29:05;;;;;;;0.50;0.50;;;;;;;;;;5325491;26;20000;-80
2024/04/09 13:31:32;;;;;;;0.45;0.45;;;;;;;;;;5335636;26;20014;-79
2024/04/09 13:33:59;;;;;;;0.47;0.40;;;;;;;;;;5360077;26;20001;-79
2024/04/09 13:36:25;;;;;;;0.95;0.28;;;;;;;;;;5366688;26;20329;-79
2024/04/09 13:38:50;;;;;;;0.20;0.20;;;;;;;;;;5345025;26;20000;-79
2024/04/09 13:41:15;;;;;;;1.02;0.30;;;;;;;;;;5374251;26;20721;-80
2024/04/09 13:43:41;;;;;;;1.35;0.22;;;;;;;;;;5374209;26;20720;-79
2024/04/09 13:46:06;;;;;;;28.75;1.77;;;;;;;;;;5365847;26;19997;-79
2024/04/09 13:48:31;;;;;;;1.60;0.20;;;;;;;;;;5364904;26;20004;-80
2024/04/09 13:50:57;;;;;;;0.28;0.28;;;;;;;;;;5340246;26;20052;-80
2024/04/09 13:53:22;;;;;;;0.32;0.32;;;;;;;;;;5376290;26;20015;-79
2024/04/09 13:55:48;;;;;;;1.30;0.30;;;;;;;;;;5377401;26;20015;-79
2024/04/09 13:58:13;;;;;;;0.50;0.50;;;;;;;;;;5369014;26;20008;-79
2024/04/09 14:00:38;;;;;;;0.25;0.20;;;;;;;;;;5361243;26;19996;-80
2024/04/09 14:03:04;;;;;;;1.08;0.28;;;;;;;;;;5349985;26;20772;-79
2024/04/09 14:05:29;;;;;;;0.30;0.20;;;;;;;;;;5365200;26;20036;-79
2024/04/09 14:07:55;;;;;;;7.85;0.63;;;;;;;;;;5368837;26;20000;-79
2024/04/09 14:10:21;;;;;;;0.65;0.10;;;;;;;;;;5370638;26;20003;-79
2024/04/09 14:12:47;;;;;;;0.82;0.20;;;;;;;;;;5370804;26;20019;-79
2024/04/09 14:15:14;;;;;;;1.65;0.63;;;;;;;;;;5362109;26;19996;-79
2024/04/09 14:17:45;;;;;;;2.03;0.30;;;;;;;;;;5368708;26;20003;-79
2024/04/09 14:20:14;;;;;;;0.10;0.10;;;;;;;;;;5323158;26;20008;-80
2024/04/09 14:22:40;;;;;;;1.85;0.40;;;;;;;;;;5365024;26;19991;-79
2024/04/09 14:25:08;;;;;;;1.52;0.30;;;;;;;;;;5363060;26;20046;-79
2024/04/09 14:27:33;;;;;;;0.75;0.20;;;;;;;;;;5361842;26;20008;-80
2024/04/09 14:30:00;;;;;;;0.90;0.20;;;;;;;;;;5364587;26;20024;-79
2024/04/09 14:32:25;;;;;;;0.50;0.20;;;;;;;;;;5365569;26;19992;-79
2024/04/09 14:34:51;;;;;;;0.50;0.30;;;;;;;;;;5349672;26;20637;-79